Delray Beach, FL

8:02 PM EST on December 10, 2016 (GMT -0500)
J-Ball at Mizner Country Club | | Change Station

Elev 19 ft 26.43 °N, 80.18 °W | Updated 23 seconds ago

Overcast
Overcast
71.9 °F
Feels Like 71 °F
N
2.0
Wind Variable Wind from ENE
Gusts 5.0 mph

Today
High -- | Low -- °F
--% Chance of Precip.
Yesterday
High -- | Low -- °F
Precip. -- in
Pressure 30.23 in
Visibility 8.0 miles
Clouds Scattered Clouds 2400 ft
Mostly Cloudy 2900 ft
Overcast 8500 ft
Heat Index 71 °F
Dew Point 67 °F
Humidity 84%
Rainfall 0.38 in
Snow Depth Not available.
6:58 AM 5:29 PM
Waxing Gibbous, 87% visible
METAR KPMP 110053Z 06017G25KT 8SM SCT024 BKN029 OVC085 23/19 A3022 RMK AO2 PK WND 05026/0004 SLP235 T02280189
Pressure 30.23 in
Visibility 8.0 miles
Clouds Scattered Clouds 2400 ft
Mostly Cloudy 2900 ft
Overcast 8500 ft
Heat Index 71 °F
Dew Point 67 °F
Humidity 84%
Rainfall 0.38 in
Snow Depth Not available.
6:58 AM 5:29 PM
Waxing Gibbous, 87% visible
METAR KPMP 110053Z 06017G25KT 8SM SCT024 BKN029 OVC085 23/19 A3022 RMK AO2 PK WND 05026/0004 SLP235 T02280189

10-Day Weather Forecast

Almanac

Astronomy

Dec. 10, 2016 Rise Set
Actual Time
Civil Twilight
Nautical Twilight
Astronomical Twilight
Moon
Length of Visible Light
Length of Day
Tomorrow will be .
, % of the Moon is Illuminated

Today's Extremes

State Highs State Lows

Community

WunderPhotos

Upload Photos

1,956,685 photos uploaded!

WunderBlog® & News

Nearby

Air Quality

  Air Quality AQ Index Pollutant
Not available.

Snow Depth

Station Depth Elevation

Earthquake Activity

City Distance Mag. Time & Date
Minimum magnitude displayed is 2.5.

Coastal Water Temperatures

Place Temperature

Stations

Nearby Weather Stations

Station Location Temp. Windchill Dew Point Humidity Wind Precip. Elev Updated Type
                   

Watches & Warnings

There are currently no watches in effect.